createdAt,value
2023-01-30T00:01:02.901Z,6.10
2023-01-30T00:03:34.259Z,6.10
2023-01-30T00:06:01.070Z,6.10
2023-01-30T00:08:30.955Z,6.10
2023-01-30T00:10:57.767Z,6.10
2023-01-30T00:13:24.559Z,6.20
2023-01-30T00:15:51.289Z,6.20
2023-01-30T00:18:20.994Z,6.20
2023-01-30T00:20:47.717Z,6.20
2023-01-30T00:23:17.613Z,6.20
2023-01-30T00:25:46.773Z,6.30
2023-01-30T00:28:16.053Z,6.30
2023-01-30T00:30:49.308Z,6.30
2023-01-30T00:33:16.259Z,6.30
2023-01-30T00:35:47.125Z,6.40
2023-01-30T00:38:17.602Z,6.40
2023-01-30T00:40:47.249Z,6.40
2023-01-30T00:43:35.407Z,6.40
2023-01-30T00:46:23.397Z,6.50
2023-01-30T00:48:50.239Z,6.50
2023-01-30T00:51:16.987Z,6.50
2023-01-30T00:53:46.762Z,6.50
2023-01-30T00:56:13.483Z,6.50
2023-01-30T00:58:40.216Z,6.60
2023-01-30T01:01:06.981Z,6.60
2023-01-30T01:03:34.070Z,6.60
2023-01-30T01:06:03.785Z,6.60
2023-01-30T01:08:30.540Z,6.60
2023-01-30T01:10:57.362Z,6.60
2023-01-30T01:13:26.388Z,6.70
2023-01-30T01:15:55.743Z,6.70
2023-01-30T01:18:22.593Z,6.70
2023-01-30T01:20:49.411Z,6.70
2023-01-30T01:23:16.137Z,6.70
2023-01-30T01:25:43.121Z,6.70
2023-01-30T01:28:09.996Z,6.70
2023-01-30T01:30:38.230Z,6.80
2023-01-30T01:33:05.024Z,6.80
2023-01-30T01:35:31.826Z,6.80
2023-01-30T01:37:58.687Z,6.80
2023-01-30T01:40:44.376Z,6.90
2023-01-30T01:43:23.139Z,6.90
2023-01-30T01:46:01.688Z,6.90
2023-01-30T01:48:34.863Z,7.00
2023-01-30T01:51:26.090Z,7.00
2023-01-30T01:54:11.293Z,7.10
2023-01-30T01:56:42.449Z,7.20
2023-01-30T01:59:28.171Z,7.20
2023-01-30T02:01:59.165Z,7.30
2023-01-30T02:04:47.551Z,7.40
2023-01-30T02:07:15.934Z,7.50
2023-01-30T02:09:43.023Z,7.50
2023-01-30T02:12:17.332Z,7.60
2023-01-30T02:14:45.149Z,7.60
2023-01-30T02:17:11.852Z,7.70
2023-01-30T02:20:07.760Z,7.70
2023-01-30T02:22:53.289Z,7.70
2023-01-30T02:25:26.102Z,7.80
2023-01-30T02:28:11.300Z,7.80
2023-01-30T02:30:49.897Z,7.80
2023-01-30T02:33:23.304Z,7.80
2023-01-30T02:36:05.481Z,7.80
2023-01-30T02:38:58.166Z,7.80
2023-01-30T02:41:44.135Z,7.90
2023-01-30T02:44:46.560Z,7.90
2023-01-30T02:47:49.539Z,7.90
2023-01-30T02:50:29.349Z,7.90
2023-01-30T02:52:57.729Z,7.90
2023-01-30T02:55:27.792Z,7.80
2023-01-30T02:57:56.063Z,7.80
2023-01-30T03:00:41.719Z,7.80
2023-01-30T03:03:51.488Z,7.80
2023-01-30T03:06:39.711Z,7.80
2023-01-30T03:09:09.058Z,7.80
2023-01-30T03:12:05.772Z,7.80
2023-01-30T03:14:56.911Z,7.80
2023-01-30T03:17:27.100Z,7.70
2023-01-30T03:19:55.333Z,7.70
2023-01-30T03:22:25.605Z,7.70
2023-01-30T03:24:54.513Z,7.70
2023-01-30T03:27:22.767Z,7.70
2023-01-30T03:29:49.624Z,7.80
2023-01-30T03:32:16.532Z,7.80
2023-01-30T03:34:43.323Z,7.80
2023-01-30T03:37:11.936Z,7.70
2023-01-30T03:39:38.765Z,7.70
2023-01-30T03:42:05.677Z,7.70
2023-01-30T03:44:32.447Z,7.70
2023-01-30T03:46:59.204Z,7.70
2023-01-30T03:49:26.278Z,7.80
2023-01-30T03:51:53.026Z,7.70
2023-01-30T03:54:20.043Z,7.80
2023-01-30T03:56:46.791Z,7.80
2023-01-30T03:59:13.599Z,7.80
2023-01-30T04:01:40.828Z,7.80
2023-01-30T04:04:07.565Z,7.80
2023-01-30T04:06:35.822Z,7.80
2023-01-30T04:09:03.583Z,7.80
2023-01-30T04:11:30.429Z,7.80
2023-01-30T04:13:57.152Z,7.80
2023-01-30T04:16:26.262Z,7.80
2023-01-30T04:18:53.319Z,7.80
2023-01-30T04:21:20.604Z,7.80
2023-01-30T04:23:50.027Z,7.90
2023-01-30T04:26:16.893Z,7.90
2023-01-30T04:28:44.694Z,7.90
2023-01-30T04:31:11.904Z,7.90
2023-01-30T04:33:40.234Z,7.90
2023-01-30T04:36:08.873Z,7.90
2023-01-30T04:38:39.417Z,7.90
2023-01-30T04:41:06.241Z,7.90
2023-01-30T04:43:33.020Z,7.90
2023-01-30T04:45:59.802Z,7.90
2023-01-30T04:48:26.744Z,7.90
2023-01-30T04:50:56.506Z,8.00
2023-01-30T04:53:24.447Z,8.00
2023-01-30T04:55:51.657Z,8.00
2023-01-30T04:58:21.894Z,8.00
2023-01-30T05:00:49.663Z,8.00
2023-01-30T05:03:17.115Z,8.00
2023-01-30T05:05:47.360Z,8.00
2023-01-30T05:08:15.285Z,8.00
2023-01-30T05:10:44.911Z,8.00
2023-01-30T05:13:11.604Z,8.00
2023-01-30T05:15:40.156Z,8.10
2023-01-30T05:18:06.962Z,8.10
2023-01-30T05:20:33.775Z,8.00
2023-01-30T05:23:00.576Z,8.00
2023-01-30T05:25:30.394Z,8.00
2023-01-30T05:27:57.268Z,8.00
2023-01-30T05:30:24.079Z,8.00
2023-01-30T05:32:50.823Z,8.00
2023-01-30T05:35:17.806Z,8.00
2023-01-30T05:37:44.767Z,8.00
2023-01-30T05:40:12.337Z,8.00
2023-01-30T05:42:39.056Z,8.00
2023-01-30T05:45:06.596Z,8.00
2023-01-30T05:47:33.374Z,8.00
2023-01-30T05:50:00.185Z,8.10
2023-01-30T05:52:27.041Z,8.00
2023-01-30T05:54:56.683Z,8.10
2023-01-30T05:57:23.507Z,8.10
2023-01-30T05:59:50.269Z,8.10
2023-01-30T06:02:17.130Z,8.10
2023-01-30T06:04:46.210Z,8.10
2023-01-30T06:07:15.222Z,8.10
2023-01-30T06:09:45.170Z,8.10
2023-01-30T06:12:11.872Z,8.10
2023-01-30T06:14:38.816Z,8.10
2023-01-30T06:17:05.553Z,8.10
2023-01-30T06:19:32.403Z,8.10
2023-01-30T06:21:59.145Z,8.10
2023-01-30T06:24:26.489Z,8.00
2023-01-30T06:26:53.358Z,8.00
2023-01-30T06:29:20.204Z,8.00
2023-01-30T06:31:47.123Z,8.00
2023-01-30T06:34:14.047Z,8.00
2023-01-30T06:36:48.110Z,7.90
2023-01-30T06:39:14.797Z,7.90
2023-01-30T06:41:41.849Z,7.90
2023-01-30T06:44:09.567Z,7.80
2023-01-30T06:46:39.019Z,7.80
2023-01-30T06:49:05.821Z,7.70
2023-01-30T06:51:32.614Z,7.70
2023-01-30T06:53:59.339Z,7.70
2023-01-30T06:56:26.199Z,7.60
2023-01-30T06:58:53.045Z,7.60
2023-01-30T07:01:21.349Z,7.60
2023-01-30T07:03:48.666Z,7.50
2023-01-30T07:06:15.469Z,7.50
2023-01-30T07:08:45.332Z,7.50
2023-01-30T07:11:12.407Z,7.40
2023-01-30T07:13:39.180Z,7.40
2023-01-30T07:16:06.344Z,7.30
2023-01-30T07:18:33.270Z,7.30
2023-01-30T07:21:00.117Z,7.30
2023-01-30T07:23:26.823Z,7.30
2023-01-30T07:25:53.665Z,7.20
2023-01-30T07:28:20.461Z,7.20
2023-01-30T07:30:47.421Z,7.20
2023-01-30T07:33:14.370Z,7.10
2023-01-30T07:35:42.494Z,7.10
2023-01-30T07:38:09.286Z,7.10
2023-01-30T07:40:36.119Z,7.10
2023-01-30T07:43:17.857Z,7.00
2023-01-30T07:45:47.223Z,7.00
2023-01-30T07:48:17.702Z,7.00
2023-01-30T07:50:47.807Z,7.00
2023-01-30T07:53:17.543Z,7.00
2023-01-30T07:55:44.655Z,6.90
2023-01-30T07:58:18.681Z,6.90
2023-01-30T08:00:55.237Z,6.90
2023-01-30T08:03:27.830Z,6.90
2023-01-30T08:05:54.631Z,6.90
2023-01-30T08:08:21.394Z,6.90
2023-01-30T08:10:51.293Z,6.90
2023-01-30T08:13:18.281Z,6.90
2023-01-30T08:15:45.247Z,6.90
2023-01-30T08:18:12.020Z,6.90
2023-01-30T08:20:42.075Z,7.00
2023-01-30T08:23:09.369Z,7.00
2023-01-30T08:25:36.791Z,7.00
2023-01-30T08:28:04.595Z,7.00
2023-01-30T08:30:34.641Z,7.00
2023-01-30T08:33:01.709Z,7.00
2023-01-30T08:35:28.451Z,7.10
2023-01-30T08:37:55.385Z,7.10
2023-01-30T08:40:22.121Z,7.10
2023-01-30T08:42:48.863Z,7.20
2023-01-30T08:45:15.768Z,7.70
2023-01-30T08:47:48.589Z,8.40
2023-01-30T08:50:18.498Z,9.20
2023-01-30T08:52:45.588Z,9.90
2023-01-30T08:55:12.279Z,10.50
2023-01-30T08:57:39.136Z,10.90
2023-01-30T09:00:06.531Z,11.30
2023-01-30T09:02:33.299Z,11.60
2023-01-30T09:05:00.046Z,11.90
2023-01-30T09:07:28.944Z,12.10
2023-01-30T09:09:55.938Z,12.20
2023-01-30T09:12:22.658Z,12.10
2023-01-30T09:14:53.749Z,12.00
2023-01-30T09:17:20.589Z,11.80
2023-01-30T09:19:47.329Z,11.40
2023-01-30T09:22:14.208Z,11.10
2023-01-30T09:24:40.914Z,10.70
2023-01-30T09:27:08.017Z,10.40
2023-01-30T09:29:34.869Z,10.10
2023-01-30T09:32:01.685Z,9.90
2023-01-30T09:34:29.028Z,9.70
2023-01-30T09:37:00.341Z,9.50
2023-01-30T09:39:30.390Z,9.30
2023-01-30T09:42:05.593Z,9.20
2023-01-30T09:44:50.975Z,9.10
2023-01-30T09:47:38.614Z,9.00
2023-01-30T09:50:17.479Z,8.90
2023-01-30T09:52:59.644Z,8.90
2023-01-30T09:55:32.630Z,8.90
2023-01-30T09:58:00.718Z,8.80
2023-01-30T10:00:39.409Z,8.80
2023-01-30T10:03:09.261Z,8.80
2023-01-30T10:05:40.558Z,8.80
2023-01-30T10:08:21.587Z,8.80
2023-01-30T10:11:10.127Z,8.80
2023-01-30T10:13:46.380Z,8.90
2023-01-30T10:16:24.971Z,8.90
2023-01-30T10:18:57.660Z,8.90
2023-01-30T10:21:51.555Z,8.80
2023-01-30T10:24:53.612Z,8.80
2023-01-30T10:27:27.814Z,8.90
2023-01-30T10:29:57.863Z,8.90
2023-01-30T10:32:32.442Z,8.90
2023-01-30T10:35:07.691Z,8.90
2023-01-30T10:37:47.665Z,8.90
2023-01-30T10:40:37.413Z,8.90
2023-01-30T10:43:48.148Z,8.90
2023-01-30T10:46:21.120Z,8.80
2023-01-30T10:49:07.279Z,8.80
2023-01-30T10:51:58.950Z,8.80
2023-01-30T10:54:40.579Z,8.80
2023-01-30T10:57:30.432Z,8.80
2023-01-30T11:00:07.811Z,8.80
2023-01-30T11:03:04.848Z,8.90
2023-01-30T11:05:42.592Z,8.90
2023-01-30T11:08:30.437Z,8.90
2023-01-30T11:10:58.466Z,9.00
2023-01-30T11:13:30.540Z,9.00
2023-01-30T11:16:06.303Z,9.10
2023-01-30T11:19:17.620Z,9.20
2023-01-30T11:21:27.059Z,9.20
2023-01-30T11:24:04.649Z,9.20
2023-01-30T11:26:46.718Z,9.30
2023-01-30T11:29:34.748Z,9.30
2023-01-30T11:32:11.575Z,9.30
2023-01-30T11:34:38.571Z,9.20
2023-01-30T11:37:31.531Z,9.20
2023-01-30T11:39:58.347Z,9.20
2023-01-30T11:42:30.948Z,9.20
2023-01-30T11:45:16.004Z,9.20
2023-01-30T11:47:57.653Z,9.20
2023-01-30T11:50:39.813Z,9.20
2023-01-30T11:53:17.121Z,9.30
2023-01-30T11:55:56.633Z,9.30
2023-01-30T11:58:34.059Z,9.30
2023-01-30T12:01:02.118Z,9.30
2023-01-30T12:03:30.409Z,9.30
2023-01-30T12:05:58.939Z,9.30
2023-01-30T12:08:41.881Z,9.30
2023-01-30T12:11:24.568Z,9.30
2023-01-30T12:13:53.754Z,9.40
2023-01-30T12:17:01.604Z,9.50
2023-01-30T12:19:40.883Z,9.50
2023-01-30T12:22:42.969Z,9.70
2023-01-30T12:25:17.035Z,9.80
2023-01-30T12:28:21.582Z,9.80
2023-01-30T12:30:56.796Z,9.90
2023-01-30T12:33:28.461Z,10.00
2023-01-30T12:35:58.024Z,10.20
2023-01-30T12:38:39.908Z,10.30
2023-01-30T12:41:37.050Z,10.30
2023-01-30T12:44:29.415Z,10.30
2023-01-30T12:47:50.659Z,10.30
2023-01-30T12:50:23.000Z,10.40
2023-01-30T12:53:13.868Z,10.40
2023-01-30T12:55:46.273Z,10.40
2023-01-30T12:58:24.331Z,10.30
2023-01-30T13:01:16.287Z,10.30
2023-01-30T13:04:04.609Z,10.30
2023-01-30T13:07:16.647Z,10.20
2023-01-30T13:10:06.883Z,10.20
2023-01-30T13:12:55.759Z,10.10
2023-01-30T13:15:36.412Z,10.10
2023-01-30T13:18:30.769Z,10.00
2023-01-30T13:21:10.971Z,10.00
2023-01-30T13:24:01.728Z,10.00
2023-01-30T13:26:36.788Z,10.10
2023-01-30T13:29:13.524Z,10.10
2023-01-30T13:31:49.705Z,10.10
2023-01-30T13:34:31.492Z,10.20
2023-01-30T13:37:20.136Z,10.20
2023-01-30T13:40:04.245Z,10.30
2023-01-30T13:42:41.810Z,10.40
2023-01-30T13:45:30.506Z,10.40
2023-01-30T13:48:09.440Z,10.30
2023-01-30T13:50:50.990Z,10.30
2023-01-30T13:53:31.095Z,10.20
2023-01-30T13:56:08.959Z,10.20
2023-01-30T13:58:44.389Z,10.20
2023-01-30T14:01:12.878Z,10.10
2023-01-30T14:03:44.061Z,10.00
2023-01-30T14:06:32.711Z,10.00
2023-01-30T14:09:04.961Z,9.90
2023-01-30T14:11:49.701Z,9.90
2023-01-30T14:14:27.266Z,9.90
2023-01-30T14:16:58.262Z,9.90
2023-01-30T14:19:50.419Z,9.80
2023-01-30T14:22:55.412Z,9.80
2023-01-30T14:25:32.811Z,9.80
2023-01-30T14:28:08.357Z,9.80
2023-01-30T14:30:50.151Z,9.70
2023-01-30T14:33:19.654Z,9.70
2023-01-30T14:36:07.521Z,9.70
2023-01-30T14:38:39.594Z,9.60
2023-01-30T14:41:09.052Z,9.60
2023-01-30T14:43:53.030Z,9.50
2023-01-30T14:46:20.509Z,9.50
2023-01-30T14:48:57.252Z,9.50
2023-01-30T14:51:26.112Z,9.40
2023-01-30T14:54:08.173Z,9.40
2023-01-30T14:56:54.260Z,9.40
2023-01-30T14:59:35.343Z,9.30
2023-01-30T15:02:07.994Z,9.30
2023-01-30T15:05:01.753Z,9.30
2023-01-30T15:07:49.823Z,9.30
2023-01-30T15:10:49.263Z,9.30
2023-01-30T15:13:53.601Z,9.30
2023-01-30T15:16:20.636Z,9.30
2023-01-30T15:19:26.076Z,9.20
2023-01-30T15:22:10.741Z,9.20
2023-01-30T15:24:43.733Z,9.20
2023-01-30T15:27:13.190Z,9.20
2023-01-30T15:30:13.987Z,9.20
2023-01-30T15:32:42.900Z,9.10
2023-01-30T15:35:22.708Z,9.10
2023-01-30T15:37:56.421Z,9.10
2023-01-30T15:40:27.812Z,9.10
2023-01-30T15:43:00.936Z,9.10
2023-01-30T15:46:08.162Z,9.10
2023-01-30T15:48:47.245Z,9.10
2023-01-30T15:51:16.892Z,9.00
2023-01-30T15:53:46.036Z,9.00
2023-01-30T15:56:20.571Z,9.00
2023-01-30T15:58:48.053Z,9.00
2023-01-30T16:01:20.676Z,8.90
2023-01-30T16:03:51.293Z,8.90
2023-01-30T16:06:37.610Z,8.90
2023-01-30T16:09:20.571Z,8.80
2023-01-30T16:11:48.099Z,8.70
2023-01-30T16:14:26.548Z,8.70
2023-01-30T16:16:55.727Z,8.70
2023-01-30T16:19:28.700Z,8.60
2023-01-30T16:22:01.955Z,8.50
2023-01-30T16:24:32.124Z,8.50
2023-01-30T16:27:02.746Z,8.40
2023-01-30T16:29:32.404Z,8.40
2023-01-30T16:32:00.018Z,8.30
2023-01-30T16:34:33.361Z,8.30
2023-01-30T16:37:30.144Z,8.20
2023-01-30T16:40:11.514Z,8.20
2023-01-30T16:42:38.533Z,8.10
2023-01-30T16:45:32.972Z,8.10
2023-01-30T16:48:20.003Z,8.00
2023-01-30T16:51:00.443Z,7.90
2023-01-30T16:53:32.551Z,7.90
2023-01-30T16:56:01.873Z,7.90
2023-01-30T16:58:33.985Z,7.90
2023-01-30T17:01:04.776Z,7.90
2023-01-30T17:03:59.312Z,7.90
2023-01-30T17:06:35.403Z,7.90
2023-01-30T17:09:03.269Z,7.90
2023-01-30T17:11:37.492Z,7.90
2023-01-30T17:14:26.367Z,7.90
2023-01-30T17:17:07.560Z,7.90
2023-01-30T17:19:38.032Z,7.80
2023-01-30T17:22:16.191Z,7.70
2023-01-30T17:24:43.004Z,7.70
2023-01-30T17:27:10.181Z,7.60
2023-01-30T17:29:44.992Z,7.60
2023-01-30T17:32:15.935Z,7.60
2023-01-30T17:34:45.870Z,7.50
2023-01-30T17:37:20.194Z,7.50
2023-01-30T17:39:48.032Z,7.50
2023-01-30T17:42:20.156Z,7.40
2023-01-30T17:44:46.957Z,7.40
2023-01-30T17:47:13.915Z,7.30
2023-01-30T17:49:40.711Z,7.30
2023-01-30T17:52:07.645Z,7.30
2023-01-30T17:54:34.480Z,7.20
2023-01-30T17:57:04.152Z,7.20
2023-01-30T17:59:31.648Z,7.20
2023-01-30T18:01:59.183Z,7.20
2023-01-30T18:04:25.949Z,7.20
2023-01-30T18:06:59.021Z,7.20
2023-01-30T18:09:26.987Z,7.20
2023-01-30T18:11:53.801Z,7.20
2023-01-30T18:14:22.785Z,7.20
2023-01-30T18:16:50.061Z,7.10
2023-01-30T18:19:24.165Z,7.10
2023-01-30T18:21:51.278Z,7.00
2023-01-30T18:24:20.845Z,7.00
2023-01-30T18:26:47.953Z,6.90
2023-01-30T18:29:15.140Z,6.90
2023-01-30T18:31:42.002Z,6.80
2023-01-30T18:34:11.092Z,6.80
2023-01-30T18:36:38.568Z,6.80
2023-01-30T18:39:06.015Z,6.70
2023-01-30T18:41:32.952Z,6.70
2023-01-30T18:44:02.109Z,6.60
2023-01-30T18:46:30.082Z,6.60
2023-01-30T18:48:57.915Z,6.60
2023-01-30T18:51:30.144Z,6.50
2023-01-30T18:54:03.253Z,6.50
2023-01-30T18:56:33.189Z,6.40
2023-01-30T18:59:05.256Z,6.40
2023-01-30T19:01:35.579Z,6.30
2023-01-30T19:04:03.609Z,6.30
2023-01-30T19:06:30.454Z,6.30
2023-01-30T19:09:00.105Z,6.20
2023-01-30T19:11:45.813Z,6.20
2023-01-30T19:14:14.333Z,6.20
2023-01-30T19:16:41.460Z,6.10
2023-01-30T19:19:09.364Z,6.10
2023-01-30T19:21:36.868Z,6.10
2023-01-30T19:24:06.719Z,6.10
2023-01-30T19:26:43.382Z,6.10
2023-01-30T19:29:10.391Z,6.10
2023-01-30T19:31:41.794Z,6.10
2023-01-30T19:34:08.773Z,6.20
2023-01-30T19:36:36.691Z,6.20
2023-01-30T19:39:05.984Z,6.30
2023-01-30T19:41:35.194Z,6.30
2023-01-30T19:44:03.816Z,6.30
2023-01-30T19:46:31.108Z,6.30
2023-01-30T19:48:57.975Z,6.30
2023-01-30T19:51:32.674Z,6.30
2023-01-30T19:54:02.242Z,6.30
2023-01-30T19:56:30.322Z,6.20
2023-01-30T19:58:58.862Z,6.20
2023-01-30T20:01:30.333Z,6.20
2023-01-30T20:03:57.634Z,6.20
2023-01-30T20:06:26.628Z,6.20
2023-01-30T20:09:12.018Z,6.20
2023-01-30T20:11:41.509Z,6.30
2023-01-30T20:14:09.942Z,6.20
2023-01-30T20:16:36.885Z,6.30
2023-01-30T20:19:11.621Z,6.20
2023-01-30T20:21:38.365Z,6.20
2023-01-30T20:24:06.450Z,6.20
2023-01-30T20:26:35.522Z,6.20
2023-01-30T20:29:06.684Z,6.10
2023-01-30T20:31:39.052Z,6.10
2023-01-30T20:34:11.460Z,6.10
2023-01-30T20:36:38.275Z,6.10
2023-01-30T20:39:07.569Z,6.00
2023-01-30T20:41:36.710Z,6.00
2023-01-30T20:44:05.179Z,6.00
2023-01-30T20:46:41.849Z,6.00
2023-01-30T20:49:20.929Z,6.00
2023-01-30T20:51:52.388Z,6.00
2023-01-30T20:54:21.931Z,5.90
2023-01-30T20:56:53.538Z,5.90
2023-01-30T20:59:27.093Z,5.90
2023-01-30T21:01:55.111Z,5.90
2023-01-30T21:04:24.248Z,5.80
2023-01-30T21:06:51.112Z,5.80
2023-01-30T21:09:23.846Z,5.80
2023-01-30T21:11:53.037Z,5.80
2023-01-30T21:14:19.853Z,5.80
2023-01-30T21:16:47.245Z,5.70
2023-01-30T21:19:16.240Z,5.70
2023-01-30T21:21:53.475Z,5.70
2023-01-30T21:24:25.774Z,5.70
2023-01-30T21:26:53.228Z,5.70
2023-01-30T21:29:23.964Z,5.70
2023-01-30T21:31:50.988Z,5.60
2023-01-30T21:34:18.007Z,5.60
2023-01-30T21:37:04.812Z,5.60
2023-01-30T21:39:50.232Z,5.60
2023-01-30T21:42:39.134Z,5.60
2023-01-30T21:45:06.800Z,5.60
2023-01-30T21:47:33.602Z,5.50
2023-01-30T21:50:00.403Z,5.50
2023-01-30T21:52:27.304Z,5.50
2023-01-30T21:54:54.073Z,5.50
2023-01-30T21:57:21.946Z,5.50
2023-01-30T21:59:48.694Z,5.40
2023-01-30T22:02:15.416Z,5.40
2023-01-30T22:04:45.484Z,5.40
2023-01-30T22:07:12.364Z,5.40
2023-01-30T22:09:39.066Z,5.40
2023-01-30T22:12:05.991Z,5.30
2023-01-30T22:14:35.240Z,5.30
2023-01-30T22:17:02.253Z,5.30
2023-01-30T22:19:35.445Z,5.30
2023-01-30T22:22:03.066Z,5.30
2023-01-30T22:24:30.457Z,5.20
2023-01-30T22:26:57.565Z,5.20
2023-01-30T22:29:24.465Z,5.20
2023-01-30T22:31:51.677Z,5.20
2023-01-30T22:34:18.684Z,5.20
2023-01-30T22:36:45.396Z,5.10
2023-01-30T22:39:12.151Z,5.10
2023-01-30T22:41:39.499Z,5.10
2023-01-30T22:44:09.118Z,5.10
2023-01-30T22:46:38.701Z,5.10
2023-01-30T22:49:10.079Z,5.00
2023-01-30T22:51:43.158Z,5.00
2023-01-30T22:54:17.599Z,5.00
2023-01-30T22:56:46.954Z,5.00
2023-01-30T22:59:14.318Z,4.90
2023-01-30T23:01:43.662Z,5.00
2023-01-30T23:04:21.695Z,4.90
2023-01-30T23:06:49.704Z,4.90
2023-01-30T23:09:19.732Z,4.90
2023-01-30T23:12:10.611Z,4.90
2023-01-30T23:14:42.801Z,4.90
2023-01-30T23:17:30.997Z,5.00
2023-01-30T23:19:57.836Z,5.00
2023-01-30T23:22:24.762Z,5.00
2023-01-30T23:24:51.721Z,4.90
2023-01-30T23:27:21.660Z,4.90
2023-01-30T23:29:48.461Z,4.90
2023-01-30T23:32:15.489Z,4.80
2023-01-30T23:34:48.484Z,4.80
2023-01-30T23:37:15.987Z,4.80
2023-01-30T23:39:43.075Z,4.70
2023-01-30T23:42:09.823Z,4.70
2023-01-30T23:44:36.545Z,4.60
2023-01-30T23:47:03.526Z,4.60
2023-01-30T23:49:30.233Z,4.60
2023-01-30T23:51:57.321Z,4.50
2023-01-30T23:54:25.070Z,4.50
2023-01-30T23:56:54.668Z,4.50
2023-01-30T23:59:27.231Z,4.50
